sensor_id;sensor_type;location;lat;lon;timestamp;pressure;altitude;pressure_sealevel;temperature;humidity
7746;BME280;3917;42.748;23.278;2022-08-19T00:01:58;95147.41;;;20.23;57.76
7746;BME280;3917;42.748;23.278;2022-08-19T00:04:34;95148.72;;;20.31;57.71
7746;BME280;3917;42.748;23.278;2022-08-19T00:07:38;95182.19;;;20.51;57.55
7746;BME280;3917;42.748;23.278;2022-08-19T00:10:52;95217.09;;;20.64;58.12
7746;BME280;3917;42.748;23.278;2022-08-19T00:21:35;95243.22;;;20.28;59.29
7746;BME280;3917;42.748;23.278;2022-08-19T00:24:24;95243.75;;;20.25;59.31
7746;BME280;3917;42.748;23.278;2022-08-19T00:49:22;95208.56;;;19.80;60.16
7746;BME280;3917;42.748;23.278;2022-08-19T00:51:57;95140.47;;;19.44;60.21
7746;BME280;3917;42.748;23.278;2022-08-19T00:54:26;95202.78;;;19.86;59.46
7746;BME280;3917;42.748;23.278;2022-08-19T00:56:53;95155.41;;;19.57;59.10
7746;BME280;3917;42.748;23.278;2022-08-19T00:59:25;95219.25;;;20.10;58.59
7746;BME280;3917;42.748;23.278;2022-08-19T01:02:05;95137.69;;;19.49;58.93
7746;BME280;3917;42.748;23.278;2022-08-19T01:05:02;95154.72;;;19.36;60.01
7746;BME280;3917;42.748;23.278;2022-08-19T01:07:40;95219.25;;;19.42;61.17
7746;BME280;3917;42.748;23.278;2022-08-19T01:10:27;95157.09;;;19.09;61.60
7746;BME280;3917;42.748;23.278;2022-08-19T01:12:55;95155.41;;;19.13;61.44
7746;BME280;3917;42.748;23.278;2022-08-19T01:15:28;95162.72;;;19.23;61.52
7746;BME280;3917;42.748;23.278;2022-08-19T01:17:57;95158.88;;;19.29;61.76
7746;BME280;3917;42.748;23.278;2022-08-19T01:20:30;95212.34;;;19.55;62.14
7746;BME280;3917;42.748;23.278;2022-08-19T01:23:09;95123.22;;;19.05;62.49
7746;BME280;3917;42.748;23.278;2022-08-19T01:25:55;95173.78;;;19.51;62.35
7746;BME280;3917;42.748;23.278;2022-08-19T01:28:29;95205.31;;;19.78;61.77
7746;BME280;3917;42.748;23.278;2022-08-19T01:30:59;95137.81;;;19.29;62.30
7746;BME280;3917;42.748;23.278;2022-08-19T01:33:34;95223.28;;;19.89;61.58
7746;BME280;3917;42.748;23.278;2022-08-19T01:36:48;95133.66;;;19.42;61.36
7746;BME280;3917;42.748;23.278;2022-08-19T01:39:29;95209.00;;;19.92;60.95
7746;BME280;3917;42.748;23.278;2022-08-19T01:49:07;95145.69;;;18.97;62.13
7746;BME280;3917;42.748;23.278;2022-08-19T02:02:46;95184.66;;;18.43;64.33
7746;BME280;3917;42.748;23.278;2022-08-19T02:09:35;95193.41;;;18.60;64.33
7746;BME280;3917;42.748;23.278;2022-08-19T02:12:58;95174.84;;;18.52;64.26
7746;BME280;3917;42.748;23.278;2022-08-19T02:19:11;95158.38;;;18.68;63.50
7746;BME280;3917;42.748;23.278;2022-08-19T02:21:38;95153.50;;;18.64;63.63
7746;BME280;3917;42.748;23.278;2022-08-19T02:24:05;95213.97;;;19.02;63.65
7746;BME280;3917;42.748;23.278;2022-08-19T02:26:43;95199.78;;;19.00;63.35
7746;BME280;3917;42.748;23.278;2022-08-19T02:29:27;95184.00;;;18.87;63.33
7746;BME280;3917;42.748;23.278;2022-08-19T02:31:58;95153.56;;;18.39;64.31
7746;BME280;3917;42.748;23.278;2022-08-19T02:51:32;95145.53;;;17.33;66.57
7746;BME280;3917;42.748;23.278;2022-08-19T02:55:01;95191.34;;;17.46;66.49
7746;BME280;3917;42.748;23.278;2022-08-19T02:58:19;95163.19;;;17.11;65.88
7746;BME280;3917;42.748;23.278;2022-08-19T03:01:07;95254.28;;;17.35;66.89
7746;BME280;3917;42.748;23.278;2022-08-19T03:06:44;95243.06;;;17.21;68.50
7746;BME280;3917;42.748;23.278;2022-08-19T03:09:20;95154.66;;;16.67;69.00
7746;BME280;3917;42.748;23.278;2022-08-19T03:25:13;95171.19;;;17.73;67.40
7746;BME280;3917;42.748;23.278;2022-08-19T03:27:40;95254.38;;;18.05;67.73
7746;BME280;3917;42.748;23.278;2022-08-19T03:30:07;95225.75;;;17.68;68.32
7746;BME280;3917;42.748;23.278;2022-08-19T03:57:22;95193.94;;;18.47;64.51
7746;BME280;3917;42.748;23.278;2022-08-19T04:06:25;95284.91;;;20.77;58.85
7746;BME280;3917;42.748;23.278;2022-08-19T04:09:12;95198.59;;;20.99;56.36
7746;BME280;3917;42.748;23.278;2022-08-19T04:25:13;95228.88;;;22.98;50.90
7746;BME280;3917;42.748;23.278;2022-08-19T04:27:39;95285.34;;;23.49;50.31
7746;BME280;3917;42.748;23.278;2022-08-19T04:30:09;95218.94;;;23.65;49.40
7746;BME280;3917;42.748;23.278;2022-08-19T04:32:36;95214.41;;;24.04;48.23
7746;BME280;3917;42.748;23.278;2022-08-19T04:35:04;95228.59;;;24.65;46.32
7746;BME280;3917;42.748;23.278;2022-08-19T04:37:31;95216.69;;;24.25;46.47
7746;BME280;3917;42.748;23.278;2022-08-19T04:39:58;95249.06;;;24.72;46.22
7746;BME280;3917;42.748;23.278;2022-08-19T04:49:20;95221.03;;;26.52;41.71
7746;BME280;3917;42.748;23.278;2022-08-19T04:51:53;95199.72;;;27.07;40.11
7746;BME280;3917;42.748;23.278;2022-08-19T04:54:22;95233.16;;;26.77;40.94
7746;BME280;3917;42.748;23.278;2022-08-19T04:56:59;95226.56;;;26.52;41.45
7746;BME280;3917;42.748;23.278;2022-08-19T04:59:32;95275.56;;;27.82;39.71
7746;BME280;3917;42.748;23.278;2022-08-19T05:02:01;95299.56;;;27.49;40.52
7746;BME280;3917;42.748;23.278;2022-08-19T05:04:29;95282.31;;;27.35;40.90
7746;BME280;3917;42.748;23.278;2022-08-19T05:06:57;95260.41;;;28.09;39.34
7746;BME280;3917;42.748;23.278;2022-08-19T05:09:24;95254.09;;;28.41;38.65
7746;BME280;3917;42.748;23.278;2022-08-19T05:11:51;95253.97;;;28.17;39.27
7746;BME280;3917;42.748;23.278;2022-08-19T05:14:19;95290.47;;;28.81;38.73
7746;BME280;3917;42.748;23.278;2022-08-19T05:16:46;95241.16;;;28.66;37.99
7746;BME280;3917;42.748;23.278;2022-08-19T05:19:39;95285.47;;;29.19;37.03
7746;BME280;3917;42.748;23.278;2022-08-19T05:22:24;95258.13;;;27.82;39.52
7746;BME280;3917;42.748;23.278;2022-08-19T05:25:03;95310.81;;;29.18;37.86
7746;BME280;3917;42.748;23.278;2022-08-19T05:27:31;95308.50;;;29.89;36.92
7746;BME280;3917;42.748;23.278;2022-08-19T05:29:59;95294.81;;;30.60;34.94
7746;BME280;3917;42.748;23.278;2022-08-19T05:32:27;95275.13;;;28.96;37.98
7746;BME280;3917;42.748;23.278;2022-08-19T05:34:55;95309.59;;;29.27;37.47
7746;BME280;3917;42.748;23.278;2022-08-19T05:37:22;95302.31;;;30.72;34.99
7746;BME280;3917;42.748;23.278;2022-08-19T05:39:52;95268.41;;;31.25;33.73
7746;BME280;3917;42.748;23.278;2022-08-19T05:42:19;95306.41;;;30.90;34.26
7746;BME280;3917;42.748;23.278;2022-08-19T05:44:48;95305.25;;;31.34;34.17
7746;BME280;3917;42.748;23.278;2022-08-19T05:51:02;95309.00;;;30.55;35.50
7746;BME280;3917;42.748;23.278;2022-08-19T05:53:42;95297.63;;;32.10;33.30
7746;BME280;3917;42.748;23.278;2022-08-19T05:56:16;95301.31;;;32.48;32.58
7746;BME280;3917;42.748;23.278;2022-08-19T05:58:44;95235.19;;;29.57;36.72
7746;BME280;3917;42.748;23.278;2022-08-19T06:01:18;95227.69;;;31.05;34.20
7746;BME280;3917;42.748;23.278;2022-08-19T06:03:46;95244.94;;;32.43;32.16
7746;BME280;3917;42.748;23.278;2022-08-19T06:06:18;95244.16;;;33.64;30.10
7746;BME280;3917;42.748;23.278;2022-08-19T06:09:11;95296.13;;;34.14;30.04
7746;BME280;3917;42.748;23.278;2022-08-19T06:11:46;95279.81;;;31.20;34.38
7746;BME280;3917;42.748;23.278;2022-08-19T06:14:29;95278.66;;;33.07;31.12
7746;BME280;3917;42.748;23.278;2022-08-19T06:17:02;95242.94;;;34.70;28.24
7746;BME280;3917;42.748;23.278;2022-08-19T06:19:31;95300.63;;;34.75;28.14
7746;BME280;3917;42.748;23.278;2022-08-19T06:22:14;95288.31;;;35.53;27.36
7746;BME280;3917;42.748;23.278;2022-08-19T06:25:06;95278.09;;;36.19;26.57
7746;BME280;3917;42.748;23.278;2022-08-19T06:27:44;95253.66;;;35.75;26.94
7746;BME280;3917;42.748;23.278;2022-08-19T06:30:37;95246.19;;;34.76;27.72
7746;BME280;3917;42.748;23.278;2022-08-19T06:34:04;95241.06;;;33.96;28.40
7746;BME280;3917;42.748;23.278;2022-08-19T06:36:33;95249.41;;;34.48;28.72
7746;BME280;3917;42.748;23.278;2022-08-19T06:39:02;95269.59;;;34.31;29.16
7746;BME280;3917;42.748;23.278;2022-08-19T06:41:31;95291.16;;;34.87;28.63
7746;BME280;3917;42.748;23.278;2022-08-19T06:44:10;95278.63;;;37.11;25.72
7746;BME280;3917;42.748;23.278;2022-08-19T06:46:40;95283.44;;;35.91;26.25
7746;BME280;3917;42.748;23.278;2022-08-19T06:49:13;95276.41;;;35.60;27.42
7746;BME280;3917;42.748;23.278;2022-08-19T06:51:43;95252.25;;;36.54;26.37
7746;BME280;3917;42.748;23.278;2022-08-19T06:54:19;95257.03;;;37.47;24.70
7746;BME280;3917;42.748;23.278;2022-08-19T06:56:53;95299.28;;;36.67;26.03
7746;BME280;3917;42.748;23.278;2022-08-19T06:59:37;95301.63;;;37.48;24.70
7746;BME280;3917;42.748;23.278;2022-08-19T07:02:13;95305.34;;;38.09;23.99
7746;BME280;3917;42.748;23.278;2022-08-19T07:04:55;95293.47;;;39.13;23.59
7746;BME280;3917;42.748;23.278;2022-08-19T07:07:26;95245.22;;;39.69;22.20
7746;BME280;3917;42.748;23.278;2022-08-19T07:10:31;95254.97;;;39.54;22.57
7746;BME280;3917;42.748;23.278;2022-08-19T07:13:06;95308.88;;;39.77;23.01
7746;BME280;3917;42.748;23.278;2022-08-19T07:15:41;95234.56;;;38.14;24.27
7746;BME280;3917;42.748;23.278;2022-08-19T07:18:14;95241.66;;;38.85;23.61
7746;BME280;3917;42.748;23.278;2022-08-19T07:20:41;95291.91;;;40.77;21.69
7746;BME280;3917;42.748;23.278;2022-08-19T07:23:27;95243.38;;;37.73;24.15
7746;BME280;3917;42.748;23.278;2022-08-19T07:26:05;95276.66;;;35.48;26.86
7746;BME280;3917;42.748;23.278;2022-08-19T07:31:35;95285.88;;;39.79;22.14
7746;BME280;3917;42.748;23.278;2022-08-19T07:34:04;95254.66;;;41.76;19.90
7746;BME280;3917;42.748;23.278;2022-08-19T07:36:36;95304.66;;;41.86;20.16
7746;BME280;3917;42.748;23.278;2022-08-19T07:39:25;95298.34;;;42.52;19.71
7746;BME280;3917;42.748;23.278;2022-08-19T07:41:53;95287.81;;;43.35;19.02
7746;BME280;3917;42.748;23.278;2022-08-19T07:44:21;95285.59;;;40.62;21.64
7746;BME280;3917;42.748;23.278;2022-08-19T07:46:51;95254.84;;;39.75;22.03
7746;BME280;3917;42.748;23.278;2022-08-19T07:49:38;95264.56;;;40.63;21.68
7746;BME280;3917;42.748;23.278;2022-08-19T07:52:14;95231.50;;;40.60;21.19
7746;BME280;3917;42.748;23.278;2022-08-19T07:54:41;95268.31;;;38.42;24.51
7746;BME280;3917;42.748;23.278;2022-08-19T07:57:10;95290.16;;;41.54;20.98
7746;BME280;3917;42.748;23.278;2022-08-19T07:59:37;95289.84;;;41.15;21.14
7746;BME280;3917;42.748;23.278;2022-08-19T08:02:08;95291.03;;;42.04;20.91
7746;BME280;3917;42.748;23.278;2022-08-19T08:04:42;95256.41;;;41.06;20.93
7746;BME280;3917;42.748;23.278;2022-08-19T08:07:21;95297.53;;;42.01;19.88
7746;BME280;3917;42.748;23.278;2022-08-19T08:10:12;95271.16;;;41.81;20.07
7746;BME280;3917;42.748;23.278;2022-08-19T08:12:40;95283.75;;;36.22;25.68
7746;BME280;3917;42.748;23.278;2022-08-19T08:15:10;95290.97;;;39.36;22.40
7746;BME280;3917;42.748;23.278;2022-08-19T08:17:40;95218.78;;;40.38;21.94
7746;BME280;3917;42.748;23.278;2022-08-19T08:20:07;95272.91;;;41.98;19.76
7746;BME280;3917;42.748;23.278;2022-08-19T08:22:43;95256.66;;;42.72;19.48
7746;BME280;3917;42.748;23.278;2022-08-19T08:25:30;95218.28;;;38.78;23.07
7746;BME280;3917;42.748;23.278;2022-08-19T08:27:57;95269.34;;;41.94;20.16
7746;BME280;3917;42.748;23.278;2022-08-19T08:30:27;95226.59;;;43.53;18.48
7746;BME280;3917;42.748;23.278;2022-08-19T08:32:56;95250.63;;;43.29;19.32
7746;BME280;3917;42.748;23.278;2022-08-19T08:35:38;95199.66;;;40.86;20.57
7746;BME280;3917;42.748;23.278;2022-08-19T08:38:20;95211.47;;;41.12;20.19
7746;BME280;3917;42.748;23.278;2022-08-19T08:40:50;95241.91;;;43.92;18.39
7746;BME280;3917;42.748;23.278;2022-08-19T08:43:37;95254.47;;;41.60;20.19
7746;BME280;3917;42.748;23.278;2022-08-19T08:46:11;95247.56;;;42.38;19.84
7746;BME280;3917;42.748;23.278;2022-08-19T08:52:45;95245.19;;;41.86;19.34
7746;BME280;3917;42.748;23.278;2022-08-19T08:55:36;95198.84;;;42.00;19.58
7746;BME280;3917;42.748;23.278;2022-08-19T08:58:39;95206.19;;;42.83;19.04
7746;BME280;3917;42.748;23.278;2022-08-19T09:01:38;95226.72;;;43.10;18.94
7746;BME280;3917;42.748;23.278;2022-08-19T09:04:26;95180.38;;;44.01;17.10
7746;BME280;3917;42.748;23.278;2022-08-19T09:07:18;95247.84;;;44.46;17.10
7746;BME280;3917;42.748;23.278;2022-08-19T09:10:07;95175.88;;;44.78;15.58
7746;BME280;3917;42.748;23.278;2022-08-19T09:13:00;95217.88;;;42.65;18.75
7746;BME280;3917;42.748;23.278;2022-08-19T09:15:42;95166.28;;;43.30;17.44
7746;BME280;3917;42.748;23.278;2022-08-19T09:18:39;95159.44;;;42.29;17.81
7746;BME280;3917;42.748;23.278;2022-08-19T09:21:25;95230.09;;;43.77;16.98
7746;BME280;3917;42.748;23.278;2022-08-19T09:24:08;95207.16;;;44.94;15.09
7746;BME280;3917;42.748;23.278;2022-08-19T09:26:38;95216.31;;;46.06;14.83
7746;BME280;3917;42.748;23.278;2022-08-19T09:29:20;95188.25;;;42.47;17.51
7746;BME280;3917;42.748;23.278;2022-08-19T09:31:49;95216.97;;;45.05;14.29
7746;BME280;3917;42.748;23.278;2022-08-19T09:34:22;95200.06;;;44.41;15.69
7746;BME280;3917;42.748;23.278;2022-08-19T09:36:51;95156.00;;;45.57;14.55
7746;BME280;3917;42.748;23.278;2022-08-19T09:39:21;95171.03;;;43.68;15.53
7746;BME280;3917;42.748;23.278;2022-08-19T09:41:48;95154.78;;;43.37;15.66
7746;BME280;3917;42.748;23.278;2022-08-19T09:44:18;95191.56;;;44.24;15.84
7746;BME280;3917;42.748;23.278;2022-08-19T09:46:55;95137.59;;;44.37;14.81
7746;BME280;3917;42.748;23.278;2022-08-19T09:49:34;95145.38;;;43.56;15.01
7746;BME280;3917;42.748;23.278;2022-08-19T09:52:05;95139.66;;;43.24;15.47
7746;BME280;3917;42.748;23.278;2022-08-19T09:54:33;95163.50;;;43.46;15.17
7746;BME280;3917;42.748;23.278;2022-08-19T09:57:08;95129.66;;;41.51;16.76
7746;BME280;3917;42.748;23.278;2022-08-19T09:59:38;95131.34;;;40.61;17.06
7746;BME280;3917;42.748;23.278;2022-08-19T10:05:06;95098.22;;;42.11;15.84
7746;BME280;3917;42.748;23.278;2022-08-19T10:07:54;95125.16;;;42.43;15.56
7746;BME280;3917;42.748;23.278;2022-08-19T10:10:40;95109.94;;;42.92;15.83
7746;BME280;3917;42.748;23.278;2022-08-19T10:13:08;95149.16;;;40.58;17.35
7746;BME280;3917;42.748;23.278;2022-08-19T10:15:35;95140.16;;;42.63;16.46
7746;BME280;3917;42.748;23.278;2022-08-19T10:18:23;95114.38;;;42.93;15.99
7746;BME280;3917;42.748;23.278;2022-08-19T10:21:09;95107.75;;;40.71;17.80
7746;BME280;3917;42.748;23.278;2022-08-19T10:23:47;95151.56;;;40.56;18.98
7746;BME280;3917;42.748;23.278;2022-08-19T10:26:23;95153.66;;;39.12;19.15
7746;BME280;3917;42.748;23.278;2022-08-19T10:28:58;95092.81;;;39.62;18.53
7746;BME280;3917;42.748;23.278;2022-08-19T10:31:28;95165.25;;;40.61;17.96
7746;BME280;3917;42.748;23.278;2022-08-19T10:33:56;95141.13;;;39.75;19.69
7746;BME280;3917;42.748;23.278;2022-08-19T10:36:26;95102.50;;;38.30;20.28
7746;BME280;3917;42.748;23.278;2022-08-19T10:38:57;95066.44;;;36.55;22.24
7746;BME280;3917;42.748;23.278;2022-08-19T10:41:42;95113.75;;;36.46;22.53
7746;BME280;3917;42.748;23.278;2022-08-19T10:44:31;95113.72;;;36.32;22.46
7746;BME280;3917;42.748;23.278;2022-08-19T10:47:18;95127.53;;;36.83;21.68
7746;BME280;3917;42.748;23.278;2022-08-19T10:50:24;95148.47;;;37.42;21.34
7746;BME280;3917;42.748;23.278;2022-08-19T10:53:19;95074.53;;;37.42;21.72
7746;BME280;3917;42.748;23.278;2022-08-19T10:56:32;95104.88;;;36.37;22.67
7746;BME280;3917;42.748;23.278;2022-08-19T11:05:59;95109.50;;;37.09;21.96
7746;BME280;3917;42.748;23.278;2022-08-19T11:08:35;95145.03;;;36.48;23.11
7746;BME280;3917;42.748;23.278;2022-08-19T11:11:05;95068.72;;;36.18;23.08
7746;BME280;3917;42.748;23.278;2022-08-19T11:13:39;95051.00;;;34.91;23.38
7746;BME280;3917;42.748;23.278;2022-08-19T11:16:29;95107.56;;;35.47;23.92
7746;BME280;3917;42.748;23.278;2022-08-19T11:19:08;95125.50;;;35.94;23.56
7746;BME280;3917;42.748;23.278;2022-08-19T11:21:40;95049.19;;;35.60;24.02
7746;BME280;3917;42.748;23.278;2022-08-19T11:24:16;95097.03;;;35.88;23.33
7746;BME280;3917;42.748;23.278;2022-08-19T11:27:03;95089.59;;;36.24;22.64
7746;BME280;3917;42.748;23.278;2022-08-19T11:29:37;95052.88;;;35.82;22.94
7746;BME280;3917;42.748;23.278;2022-08-19T11:32:25;95100.75;;;36.06;22.99
7746;BME280;3917;42.748;23.278;2022-08-19T11:38:17;95079.97;;;34.61;25.30
7746;BME280;3917;42.748;23.278;2022-08-19T11:41:03;95062.09;;;34.77;25.08
7746;BME280;3917;42.748;23.278;2022-08-19T11:43:45;95096.63;;;34.88;25.06
7746;BME280;3917;42.748;23.278;2022-08-19T11:46:17;95075.22;;;35.09;24.88
7746;BME280;3917;42.748;23.278;2022-08-19T11:48:44;95086.59;;;35.31;23.86
7746;BME280;3917;42.748;23.278;2022-08-19T11:51:18;95068.72;;;35.49;23.93
7746;BME280;3917;42.748;23.278;2022-08-19T11:53:46;95065.22;;;35.66;23.90
7746;BME280;3917;42.748;23.278;2022-08-19T11:56:15;95076.13;;;35.78;23.97
7746;BME280;3917;42.748;23.278;2022-08-19T11:58:45;95075.78;;;35.91;24.24
7746;BME280;3917;42.748;23.278;2022-08-19T12:01:15;95074.94;;;35.79;24.88
7746;BME280;3917;42.748;23.278;2022-08-19T12:03:59;95020.97;;;35.42;23.94
7746;BME280;3917;42.748;23.278;2022-08-19T12:06:32;95045.25;;;35.71;25.18
7746;BME280;3917;42.748;23.278;2022-08-19T12:09:03;95049.41;;;36.06;23.83
7746;BME280;3917;42.748;23.278;2022-08-19T12:11:38;95045.19;;;35.64;24.76
7746;BME280;3917;42.748;23.278;2022-08-19T12:14:13;95033.97;;;35.64;24.89
7746;BME280;3917;42.748;23.278;2022-08-19T12:16:44;95056.41;;;35.64;24.20
7746;BME280;3917;42.748;23.278;2022-08-19T12:19:13;94984.81;;;35.19;24.56
7746;BME280;3917;42.748;23.278;2022-08-19T12:21:41;94984.28;;;35.07;23.69
7746;BME280;3917;42.748;23.278;2022-08-19T12:24:07;94976.78;;;35.14;23.78
7746;BME280;3917;42.748;23.278;2022-08-19T12:26:35;94981.44;;;34.96;23.95
7746;BME280;3917;42.748;23.278;2022-08-19T12:29:08;94971.84;;;35.01;24.29
7746;BME280;3917;42.748;23.278;2022-08-19T12:31:39;95016.88;;;35.22;24.41
7746;BME280;3917;42.748;23.278;2022-08-19T12:34:06;94983.63;;;34.73;24.81
7746;BME280;3917;42.748;23.278;2022-08-19T12:36:35;94993.47;;;35.04;24.46
7746;BME280;3917;42.748;23.278;2022-08-19T12:39:02;95040.53;;;35.28;24.16
7746;BME280;3917;42.748;23.278;2022-08-19T12:41:29;95020.19;;;35.45;24.37
7746;BME280;3917;42.748;23.278;2022-08-19T12:43:56;94966.63;;;34.96;24.89
7746;BME280;3917;42.748;23.278;2022-08-19T12:46:23;95027.47;;;35.53;24.37
7746;BME280;3917;42.748;23.278;2022-08-19T12:48:50;95031.34;;;35.31;25.10
7746;BME280;3917;42.748;23.278;2022-08-19T12:51:18;95028.66;;;35.52;25.42
7746;BME280;3917;42.748;23.278;2022-08-19T12:53:47;94957.22;;;34.70;25.25
7746;BME280;3917;42.748;23.278;2022-08-19T12:56:15;95021.69;;;35.25;24.65
7746;BME280;3917;42.748;23.278;2022-08-19T12:58:43;95018.78;;;35.11;24.73
7746;BME280;3917;42.748;23.278;2022-08-19T13:01:11;95020.81;;;35.14;24.58
7746;BME280;3917;42.748;23.278;2022-08-19T13:03:38;95016.16;;;35.39;24.45
7746;BME280;3917;42.748;23.278;2022-08-19T13:06:06;95014.19;;;35.43;23.90
7746;BME280;3917;42.748;23.278;2022-08-19T13:08:33;95000.81;;;35.19;24.13
7746;BME280;3917;42.748;23.278;2022-08-19T13:11:09;95005.84;;;34.96;24.56
7746;BME280;3917;42.748;23.278;2022-08-19T13:13:38;94982.91;;;34.80;24.65
7746;BME280;3917;42.748;23.278;2022-08-19T13:16:06;95000.25;;;34.96;24.31
7746;BME280;3917;42.748;23.278;2022-08-19T13:18:33;95000.19;;;34.89;24.70
7746;BME280;3917;42.748;23.278;2022-08-19T13:21:02;94996.66;;;34.99;24.53
7746;BME280;3917;42.748;23.278;2022-08-19T13:23:30;94975.81;;;34.93;24.48
7746;BME280;3917;42.748;23.278;2022-08-19T13:25:57;94980.56;;;34.89;24.43
7746;BME280;3917;42.748;23.278;2022-08-19T13:28:26;94997.88;;;34.57;25.21
7746;BME280;3917;42.748;23.278;2022-08-19T13:31:15;94963.25;;;34.32;25.27
7746;BME280;3917;42.748;23.278;2022-08-19T13:34:00;94978.00;;;34.69;24.96
7746;BME280;3917;42.748;23.278;2022-08-19T13:36:27;94944.91;;;34.38;24.64
7746;BME280;3917;42.748;23.278;2022-08-19T13:38:54;94964.22;;;34.50;24.56
7746;BME280;3917;42.748;23.278;2022-08-19T13:41:22;94983.34;;;34.41;25.04
7746;BME280;3917;42.748;23.278;2022-08-19T13:43:50;94943.66;;;34.32;25.36
7746;BME280;3917;42.748;23.278;2022-08-19T13:46:17;94972.41;;;34.69;24.83
7746;BME280;3917;42.748;23.278;2022-08-19T13:48:45;94973.34;;;34.88;24.55
7746;BME280;3917;42.748;23.278;2022-08-19T13:51:14;94976.59;;;34.97;24.81
7746;BME280;3917;42.748;23.278;2022-08-19T13:53:42;94974.88;;;34.75;25.38
7746;BME280;3917;42.748;23.278;2022-08-19T13:56:14;94945.19;;;34.70;25.02
7746;BME280;3917;42.748;23.278;2022-08-19T13:58:42;94952.91;;;34.84;24.82
7746;BME280;3917;42.748;23.278;2022-08-19T14:01:11;94905.59;;;34.68;24.76
7746;BME280;3917;42.748;23.278;2022-08-19T14:03:38;94931.66;;;34.79;24.63
7746;BME280;3917;42.748;23.278;2022-08-19T14:06:05;94933.66;;;34.79;24.34
7746;BME280;3917;42.748;23.278;2022-08-19T14:08:32;94966.53;;;34.85;24.36
7746;BME280;3917;42.748;23.278;2022-08-19T14:10:59;94970.84;;;34.76;24.59
7746;BME280;3917;42.748;23.278;2022-08-19T14:13:26;94966.53;;;34.85;24.44
7746;BME280;3917;42.748;23.278;2022-08-19T14:15:53;94960.28;;;34.58;24.57
7746;BME280;3917;42.748;23.278;2022-08-19T14:18:21;94963.53;;;34.60;24.63
7746;BME280;3917;42.748;23.278;2022-08-19T14:20:50;94924.06;;;34.32;24.63
7746;BME280;3917;42.748;23.278;2022-08-19T14:23:17;94969.19;;;34.67;24.71
7746;BME280;3917;42.748;23.278;2022-08-19T14:25:45;94947.06;;;34.55;24.27
7746;BME280;3917;42.748;23.278;2022-08-19T14:28:13;94962.91;;;34.81;24.44
7746;BME280;3917;42.748;23.278;2022-08-19T14:30:39;94963.69;;;34.82;24.68
7746;BME280;3917;42.748;23.278;2022-08-19T14:33:07;94954.78;;;34.65;24.16
7746;BME280;3917;42.748;23.278;2022-08-19T14:35:36;94954.88;;;34.80;24.69
7746;BME280;3917;42.748;23.278;2022-08-19T14:38:04;94922.09;;;34.36;24.86
7746;BME280;3917;42.748;23.278;2022-08-19T14:40:32;94891.66;;;33.91;25.83
7746;BME280;3917;42.748;23.278;2022-08-19T14:43:02;94953.94;;;34.61;24.95
7746;BME280;3917;42.748;23.278;2022-08-19T14:45:30;94948.38;;;34.65;24.86
7746;BME280;3917;42.748;23.278;2022-08-19T14:47:57;94951.03;;;34.54;24.58
7746;BME280;3917;42.748;23.278;2022-08-19T14:50:26;94908.88;;;34.33;25.60
7746;BME280;3917;42.748;23.278;2022-08-19T14:52:59;94943.66;;;34.76;25.16
7746;BME280;3917;42.748;23.278;2022-08-19T14:55:29;94905.72;;;34.38;25.46
7746;BME280;3917;42.748;23.278;2022-08-19T14:57:57;94901.38;;;34.44;25.58
7746;BME280;3917;42.748;23.278;2022-08-19T15:00:24;94902.13;;;34.38;25.38
7746;BME280;3917;42.748;23.278;2022-08-19T15:02:52;94870.41;;;34.23;25.28
7746;BME280;3917;42.748;23.278;2022-08-19T15:05:20;94949.56;;;34.64;25.05
7746;BME280;3917;42.748;23.278;2022-08-19T15:07:47;94942.63;;;34.54;25.37
7746;BME280;3917;42.748;23.278;2022-08-19T15:10:16;94940.91;;;34.39;25.09
7746;BME280;3917;42.748;23.278;2022-08-19T15:12:46;94944.63;;;34.50;25.23
7746;BME280;3917;42.748;23.278;2022-08-19T15:15:14;94929.75;;;34.43;24.92
7746;BME280;3917;42.748;23.278;2022-08-19T15:17:42;94948.28;;;34.58;24.95
7746;BME280;3917;42.748;23.278;2022-08-19T15:20:11;94927.38;;;34.48;26.00
7746;BME280;3917;42.748;23.278;2022-08-19T15:22:39;94940.25;;;34.53;26.74
7746;BME280;3917;42.748;23.278;2022-08-19T15:25:09;94942.16;;;34.45;26.73
7746;BME280;3917;42.748;23.278;2022-08-19T15:27:38;94939.38;;;34.45;26.58
7746;BME280;3917;42.748;23.278;2022-08-19T15:30:09;94891.00;;;34.04;27.43
7746;BME280;3917;42.748;23.278;2022-08-19T15:32:38;94912.69;;;34.11;26.85
7746;BME280;3917;42.748;23.278;2022-08-19T15:35:10;94878.72;;;33.76;27.14
7746;BME280;3917;42.748;23.278;2022-08-19T15:37:38;94918.88;;;33.94;27.46
7746;BME280;3917;42.748;23.278;2022-08-19T15:40:06;94917.19;;;33.86;26.87
7746;BME280;3917;42.748;23.278;2022-08-19T15:42:35;94872.91;;;33.54;27.35
7746;BME280;3917;42.748;23.278;2022-08-19T15:45:12;94934.09;;;34.00;27.81
7746;BME280;3917;42.748;23.278;2022-08-19T15:47:39;94944.84;;;33.94;28.15
7746;BME280;3917;42.748;23.278;2022-08-19T15:50:07;94871.13;;;33.43;27.69
7746;BME280;3917;42.748;23.278;2022-08-19T15:52:34;94892.72;;;33.42;27.94
7746;BME280;3917;42.748;23.278;2022-08-19T15:55:04;94891.97;;;33.45;28.44
7746;BME280;3917;42.748;23.278;2022-08-19T15:57:32;94942.47;;;33.59;28.08
7746;BME280;3917;42.748;23.278;2022-08-19T16:00:18;94941.59;;;33.55;29.12
7746;BME280;3917;42.748;23.278;2022-08-19T16:03:02;94933.50;;;33.47;29.10
7746;BME280;3917;42.748;23.278;2022-08-19T16:05:47;94896.34;;;33.13;28.13
7746;BME280;3917;42.748;23.278;2022-08-19T16:08:32;94937.69;;;33.30;29.34
7746;BME280;3917;42.748;23.278;2022-08-19T16:11:09;94935.13;;;33.18;29.00
7746;BME280;3917;42.748;23.278;2022-08-19T16:13:37;94931.34;;;33.07;29.10
7746;BME280;3917;42.748;23.278;2022-08-19T16:16:06;94946.00;;;32.97;29.65
7746;BME280;3917;42.748;23.278;2022-08-19T16:18:33;94909.38;;;32.76;28.96
7746;BME280;3917;42.748;23.278;2022-08-19T16:21:03;94904.16;;;32.74;28.89
7746;BME280;3917;42.748;23.278;2022-08-19T16:23:32;94928.59;;;32.81;28.72
7746;BME280;3917;42.748;23.278;2022-08-19T16:26:00;94937.28;;;32.76;28.71
7746;BME280;3917;42.748;23.278;2022-08-19T16:28:27;94942.88;;;32.76;29.20
7746;BME280;3917;42.748;23.278;2022-08-19T16:30:54;94907.13;;;32.36;29.52
7746;BME280;3917;42.748;23.278;2022-08-19T16:33:25;94948.22;;;32.62;28.85
7746;BME280;3917;42.748;23.278;2022-08-19T16:35:52;94907.81;;;32.29;29.31